createdAt,value
2018-08-20T00:00:08.656Z,50.10
2018-08-20T00:01:13.570Z,50.20
2018-08-20T00:02:18.411Z,50.30
2018-08-20T00:03:23.330Z,50.20
2018-08-20T00:04:28.257Z,50.30
2018-08-20T00:05:33.190Z,50.30
2018-08-20T00:06:38.144Z,50.20
2018-08-20T00:07:42.994Z,50.20
2018-08-20T00:08:47.885Z,50.30
2018-08-20T00:09:52.793Z,50.20
2018-08-20T00:10:57.569Z,50.30
2018-08-20T00:12:02.376Z,50.30
2018-08-20T00:13:07.110Z,50.30
2018-08-20T00:14:11.912Z,50.30
2018-08-20T00:15:16.760Z,50.30
2018-08-20T00:16:21.543Z,50.30
2018-08-20T00:17:26.509Z,51.00
2018-08-20T00:18:31.462Z,50.30
2018-08-20T00:19:36.382Z,50.30
2018-08-20T00:20:41.174Z,50.40
2018-08-20T00:21:45.976Z,50.40
2018-08-20T00:22:50.822Z,50.30
2018-08-20T00:23:55.573Z,50.30
2018-08-20T00:25:00.540Z,50.40
2018-08-20T00:26:05.325Z,50.40
2018-08-20T00:27:10.142Z,50.40
2018-08-20T00:28:14.928Z,50.50
2018-08-20T00:29:19.719Z,50.40
2018-08-20T00:30:24.524Z,50.50
2018-08-20T00:31:29.426Z,50.40
2018-08-20T00:32:34.373Z,50.40
2018-08-20T00:33:39.317Z,50.50
2018-08-20T00:34:44.114Z,50.50
2018-08-20T00:35:48.952Z,50.40
2018-08-20T00:36:53.856Z,50.50
2018-08-20T00:37:59.024Z,50.50
2018-08-20T00:39:03.882Z,50.40
2018-08-20T00:40:08.724Z,50.50
2018-08-20T00:41:13.497Z,50.50
2018-08-20T00:42:18.415Z,50.60
2018-08-20T00:43:23.250Z,50.50
2018-08-20T00:44:28.196Z,50.50
2018-08-20T00:45:33.007Z,50.50
2018-08-20T00:46:37.808Z,50.60
2018-08-20T00:47:42.666Z,50.50
2018-08-20T00:48:47.558Z,50.60
2018-08-20T00:49:52.557Z,50.60
2018-08-20T00:50:57.428Z,50.60
2018-08-20T00:52:02.359Z,50.60
2018-08-20T00:53:07.116Z,50.60
2018-08-20T00:54:12.061Z,50.60
2018-08-20T00:55:16.886Z,50.60
2018-08-20T00:56:21.696Z,50.60
2018-08-20T00:57:27.187Z,50.60
2018-08-20T00:58:32.108Z,50.60
2018-08-20T00:59:37.021Z,50.70
2018-08-20T01:00:41.825Z,50.60
2018-08-20T01:01:46.708Z,50.70
2018-08-20T01:02:51.474Z,50.60
2018-08-20T01:03:56.280Z,50.70
2018-08-20T01:05:01.181Z,50.60
2018-08-20T01:06:06.121Z,50.80
2018-08-20T01:07:10.918Z,50.70
2018-08-20T01:08:15.827Z,50.70
2018-08-20T01:09:20.687Z,50.70
2018-08-20T01:10:25.451Z,50.70
2018-08-20T01:11:30.245Z,50.70
2018-08-20T01:12:35.151Z,50.80
2018-08-20T01:13:39.919Z,50.70
2018-08-20T01:14:44.646Z,50.80
2018-08-20T01:15:49.413Z,50.90
2018-08-20T01:16:54.343Z,50.80
2018-08-20T01:17:59.265Z,50.80
2018-08-20T01:19:04.098Z,50.80
2018-08-20T01:20:08.817Z,50.80
2018-08-20T01:21:13.706Z,50.90
2018-08-20T01:22:18.617Z,50.90
2018-08-20T01:23:23.477Z,50.90
2018-08-20T01:24:28.416Z,50.90
2018-08-20T01:25:33.303Z,50.90
2018-08-20T01:26:38.251Z,50.90
2018-08-20T01:27:43.176Z,50.90
2018-08-20T01:28:48.103Z,50.90
2018-08-20T01:29:53.089Z,50.90
2018-08-20T01:30:58.002Z,50.90
2018-08-20T01:32:02.786Z,51.00
2018-08-20T01:33:07.627Z,51.00
2018-08-20T01:34:12.574Z,50.90
2018-08-20T01:35:17.424Z,50.90
2018-08-20T01:36:22.362Z,50.90
2018-08-20T01:37:27.168Z,50.90
2018-08-20T01:38:32.060Z,50.90
2018-08-20T01:39:37.030Z,50.90
2018-08-20T01:40:41.893Z,50.90
2018-08-20T01:41:46.729Z,51.60
2018-08-20T01:42:51.681Z,51.00
2018-08-20T01:43:56.498Z,51.00
2018-08-20T01:45:01.418Z,51.00
2018-08-20T01:46:06.250Z,51.10
2018-08-20T01:47:11.003Z,51.10
2018-08-20T01:48:15.817Z,51.10
2018-08-20T01:49:20.733Z,51.10
2018-08-20T01:50:25.584Z,51.10
2018-08-20T01:51:30.486Z,51.10
2018-08-20T01:52:35.449Z,51.10
2018-08-20T01:53:40.425Z,51.10
2018-08-20T01:54:45.309Z,51.10
2018-08-20T01:55:50.129Z,51.10
2018-08-20T01:56:54.943Z,51.10
2018-08-20T01:57:59.951Z,51.10
2018-08-20T01:59:04.866Z,51.10
2018-08-20T02:00:09.717Z,51.10
2018-08-20T02:01:14.685Z,51.10
2018-08-20T02:02:19.431Z,51.10
2018-08-20T02:03:24.354Z,51.10
2018-08-20T02:04:29.253Z,51.10
2018-08-20T02:05:34.097Z,51.10
2018-08-20T02:06:38.976Z,51.10
2018-08-20T02:07:43.781Z,51.10
2018-08-20T02:08:48.758Z,51.10
2018-08-20T02:09:53.554Z,51.20
2018-08-20T02:10:58.437Z,51.20
2018-08-20T02:12:03.215Z,51.10
2018-08-20T02:13:08.093Z,51.20
2018-08-20T02:14:13.042Z,51.20
2018-08-20T02:15:18.177Z,51.20
2018-08-20T02:16:23.122Z,51.20
2018-08-20T02:17:27.886Z,51.20
2018-08-20T02:18:32.863Z,51.20
2018-08-20T02:19:37.625Z,51.20
2018-08-20T02:20:42.552Z,51.20
2018-08-20T02:21:47.342Z,51.20
2018-08-20T02:22:52.124Z,51.20
2018-08-20T02:23:57.074Z,51.20
2018-08-20T02:25:01.829Z,51.30
2018-08-20T02:26:06.651Z,51.20
2018-08-20T02:27:11.445Z,51.30
2018-08-20T02:28:16.331Z,51.30
2018-08-20T02:29:21.174Z,51.30
2018-08-20T02:30:26.031Z,51.40
2018-08-20T02:31:30.938Z,51.40
2018-08-20T02:32:35.863Z,51.40
2018-08-20T02:33:40.693Z,51.50
2018-08-20T02:34:45.486Z,51.50
2018-08-20T02:35:50.504Z,51.50
2018-08-20T02:36:55.435Z,51.50
2018-08-20T02:38:00.198Z,51.60
2018-08-20T02:39:04.998Z,51.60
2018-08-20T02:40:09.777Z,51.70
2018-08-20T02:41:14.567Z,51.60
2018-08-20T02:42:19.887Z,51.70
2018-08-20T02:43:24.681Z,51.70
2018-08-20T02:44:29.590Z,51.70
2018-08-20T02:45:34.466Z,51.70
2018-08-20T02:46:39.362Z,51.70
2018-08-20T02:47:44.281Z,51.70
2018-08-20T02:48:49.225Z,52.30
2018-08-20T02:49:54.127Z,51.70
2018-08-20T02:50:59.630Z,51.70
2018-08-20T02:52:04.557Z,51.70
2018-08-20T02:53:09.523Z,51.70
2018-08-20T02:54:14.287Z,52.40
2018-08-20T02:55:19.044Z,51.80
2018-08-20T02:56:23.920Z,52.40
2018-08-20T02:57:28.819Z,51.80
2018-08-20T02:58:33.670Z,51.80
2018-08-20T02:59:38.448Z,51.80
2018-08-20T03:00:43.381Z,51.80
2018-08-20T03:01:48.317Z,51.90
2018-08-20T03:02:53.130Z,51.90
2018-08-20T03:03:58.016Z,51.90
2018-08-20T03:05:02.791Z,51.90
2018-08-20T03:06:07.675Z,51.90
2018-08-20T03:07:12.498Z,51.90
2018-08-20T03:08:17.274Z,51.90
2018-08-20T03:09:22.079Z,52.00
2018-08-20T03:10:26.821Z,52.00
2018-08-20T03:11:31.642Z,52.00
2018-08-20T03:12:36.530Z,52.00
2018-08-20T03:13:41.407Z,52.00
2018-08-20T03:14:46.442Z,52.00
2018-08-20T03:15:51.258Z,52.00
2018-08-20T03:16:56.165Z,52.00
2018-08-20T03:18:01.096Z,52.00
2018-08-20T03:19:06.014Z,52.10
2018-08-20T03:20:10.913Z,52.10
2018-08-20T03:21:15.680Z,52.20
2018-08-20T03:22:20.774Z,52.20
2018-08-20T03:23:25.498Z,52.20
2018-08-20T03:24:30.355Z,52.10
2018-08-20T03:25:35.263Z,52.10
2018-08-20T03:26:40.216Z,52.10
2018-08-20T03:27:45.107Z,52.20
2018-08-20T03:28:50.026Z,52.20
2018-08-20T03:29:54.942Z,52.20
2018-08-20T03:30:59.829Z,52.20
2018-08-20T03:32:04.680Z,52.20
2018-08-20T03:33:09.520Z,52.20
2018-08-20T03:34:14.419Z,52.30
2018-08-20T03:35:19.940Z,52.20
2018-08-20T03:36:24.913Z,52.20
2018-08-20T03:37:29.719Z,52.20
2018-08-20T03:38:34.677Z,52.20
2018-08-20T03:39:39.502Z,52.20
2018-08-20T03:40:44.278Z,52.30
2018-08-20T03:41:49.190Z,52.30
2018-08-20T03:42:53.950Z,52.30
2018-08-20T03:43:58.722Z,52.90
2018-08-20T03:45:03.622Z,52.30
2018-08-20T03:46:08.523Z,52.40
2018-08-20T03:47:13.282Z,52.40
2018-08-20T03:48:18.199Z,52.40
2018-08-20T03:49:23.173Z,52.40
2018-08-20T03:50:27.993Z,52.50
2018-08-20T03:51:32.960Z,52.40
2018-08-20T03:52:37.902Z,52.50
2018-08-20T03:53:42.641Z,52.50
2018-08-20T03:54:47.658Z,52.50
2018-08-20T03:55:52.448Z,52.50
2018-08-20T03:56:57.250Z,52.50
2018-08-20T03:58:02.199Z,52.60
2018-08-20T03:59:06.933Z,52.60
2018-08-20T04:00:11.830Z,52.60
2018-08-20T04:01:16.699Z,52.60
2018-08-20T04:02:21.571Z,52.60
2018-08-20T04:03:26.406Z,52.70
2018-08-20T04:04:31.168Z,52.70
2018-08-20T04:05:36.064Z,52.60
2018-08-20T04:06:40.819Z,52.60
2018-08-20T04:07:45.816Z,52.60
2018-08-20T04:08:50.634Z,52.70
2018-08-20T04:09:55.590Z,52.70
2018-08-20T04:11:00.383Z,52.70
2018-08-20T04:12:05.430Z,52.70
2018-08-20T04:13:10.418Z,52.70
2018-08-20T04:14:15.449Z,52.80
2018-08-20T04:15:20.284Z,52.80
2018-08-20T04:16:25.114Z,52.80
2018-08-20T04:17:29.916Z,52.90
2018-08-20T04:18:34.814Z,52.90
2018-08-20T04:19:39.723Z,52.90
2018-08-20T04:20:44.544Z,52.90
2018-08-20T04:21:49.461Z,52.90
2018-08-20T04:22:54.383Z,52.90
2018-08-20T04:23:59.148Z,53.00
2018-08-20T04:25:04.124Z,53.60
2018-08-20T04:26:09.050Z,53.00
2018-08-20T04:27:13.801Z,53.00
2018-08-20T04:28:18.680Z,53.00
2018-08-20T04:29:23.789Z,53.00
2018-08-20T04:30:28.644Z,53.00
2018-08-20T04:31:33.432Z,53.00
2018-08-20T04:32:38.331Z,53.00
2018-08-20T04:33:43.129Z,53.10
2018-08-20T04:34:48.050Z,53.10
2018-08-20T04:35:53.520Z,53.10
2018-08-20T04:36:58.272Z,53.10
2018-08-20T04:38:03.200Z,53.10
2018-08-20T04:39:08.122Z,53.20
2018-08-20T04:40:13.085Z,53.20
2018-08-20T04:41:17.905Z,53.20
2018-08-20T04:42:22.805Z,53.30
2018-08-20T04:43:27.591Z,53.30
2018-08-20T04:44:32.536Z,53.30
2018-08-20T04:45:37.473Z,53.30
2018-08-20T04:46:42.485Z,53.40
2018-08-20T04:47:47.427Z,53.40
2018-08-20T04:48:52.319Z,53.40
2018-08-20T04:49:57.323Z,53.50
2018-08-20T04:51:02.248Z,53.50
2018-08-20T04:52:07.060Z,53.50
2018-08-20T04:53:11.958Z,53.50
2018-08-20T04:54:16.699Z,53.50
2018-08-20T04:55:21.532Z,53.50
2018-08-20T04:56:26.296Z,53.50
2018-08-20T04:57:31.055Z,53.50
2018-08-20T04:58:35.958Z,53.50
2018-08-20T04:59:40.765Z,53.50
2018-08-20T05:00:45.731Z,53.60
2018-08-20T05:01:50.622Z,53.60
2018-08-20T05:02:55.575Z,53.60
2018-08-20T05:04:00.708Z,53.60
2018-08-20T05:05:05.669Z,53.60
2018-08-20T05:06:10.630Z,53.60
2018-08-20T05:07:15.509Z,53.70
2018-08-20T05:08:20.314Z,53.70
2018-08-20T05:09:25.195Z,53.70
2018-08-20T05:10:30.124Z,53.70
2018-08-20T05:11:34.994Z,53.70
2018-08-20T05:12:39.899Z,53.70
2018-08-20T05:13:44.632Z,53.70
2018-08-20T05:14:49.530Z,53.70
2018-08-20T05:15:54.472Z,53.70
2018-08-20T05:16:59.372Z,53.70
2018-08-20T05:18:04.296Z,53.70
2018-08-20T05:19:09.094Z,53.70
2018-08-20T05:20:14.117Z,53.80
2018-08-20T05:21:19.291Z,53.70
2018-08-20T05:22:24.213Z,53.80
2018-08-20T05:23:29.002Z,53.70
2018-08-20T05:24:33.835Z,53.70
2018-08-20T05:25:38.680Z,53.70
2018-08-20T05:26:43.579Z,53.70
2018-08-20T05:27:48.360Z,53.70
2018-08-20T05:28:53.088Z,53.70
2018-08-20T05:29:58.017Z,53.70
2018-08-20T05:31:02.986Z,53.70
2018-08-20T05:32:07.761Z,53.70
2018-08-20T05:33:12.564Z,53.70
2018-08-20T05:34:17.539Z,53.80
2018-08-20T05:35:22.464Z,53.80
2018-08-20T05:36:27.263Z,53.80
2018-08-20T05:37:32.154Z,53.80
2018-08-20T05:38:37.302Z,53.90
2018-08-20T05:39:42.087Z,53.90
2018-08-20T05:40:46.946Z,54.00
2018-08-20T05:41:51.925Z,53.90
2018-08-20T05:42:56.691Z,53.90
2018-08-20T05:44:01.534Z,53.90
2018-08-20T05:45:06.409Z,53.90
2018-08-20T05:46:11.321Z,54.60
2018-08-20T05:47:16.228Z,54.00
2018-08-20T05:48:21.134Z,53.90
2018-08-20T05:49:25.869Z,53.90
2018-08-20T05:50:30.614Z,53.90
2018-08-20T05:51:35.462Z,53.90
2018-08-20T05:52:40.336Z,53.90
2018-08-20T05:53:45.005Z,53.90
2018-08-20T05:54:49.731Z,53.90
2018-08-20T05:55:54.831Z,53.90
2018-08-20T05:56:59.592Z,53.90
2018-08-20T05:58:04.322Z,53.90
2018-08-20T05:59:09.221Z,54.00
2018-08-20T06:00:13.894Z,54.00
2018-08-20T06:01:18.777Z,54.00
2018-08-20T06:02:23.687Z,54.00
2018-08-20T06:03:28.548Z,54.00
2018-08-20T06:04:33.344Z,54.10
2018-08-20T06:05:38.229Z,54.10
2018-08-20T06:06:43.155Z,54.10
2018-08-20T06:07:47.981Z,54.10
2018-08-20T06:08:52.867Z,54.20
2018-08-20T06:09:57.670Z,54.20
2018-08-20T06:11:02.500Z,54.20
2018-08-20T06:12:07.292Z,54.20
2018-08-20T06:13:12.379Z,54.20
2018-08-20T06:14:17.269Z,54.20
2018-08-20T06:15:22.212Z,54.20
2018-08-20T06:16:27.080Z,54.20
2018-08-20T06:17:32.010Z,54.10
2018-08-20T06:18:36.881Z,54.10
2018-08-20T06:19:41.843Z,54.10
2018-08-20T06:20:46.613Z,54.10
2018-08-20T06:21:51.525Z,54.20
2018-08-20T06:22:56.418Z,54.20
2018-08-20T06:24:01.233Z,54.20
2018-08-20T06:25:06.156Z,54.10
2018-08-20T06:26:10.945Z,54.10
2018-08-20T06:27:15.949Z,54.10
2018-08-20T06:28:20.729Z,54.20
2018-08-20T06:29:25.702Z,54.10
2018-08-20T06:30:30.901Z,54.10
2018-08-20T06:31:35.701Z,54.10
2018-08-20T06:32:40.514Z,54.10
2018-08-20T06:33:45.345Z,54.10
2018-08-20T06:34:50.266Z,54.20
2018-08-20T06:35:55.048Z,54.10
2018-08-20T06:36:59.912Z,54.10
2018-08-20T06:38:04.726Z,54.20
2018-08-20T06:39:09.673Z,54.10
2018-08-20T06:40:14.584Z,54.20
2018-08-20T06:41:19.466Z,54.20
2018-08-20T06:42:24.409Z,54.20
2018-08-20T06:43:29.189Z,54.20
2018-08-20T06:44:33.969Z,54.20
2018-08-20T06:45:38.820Z,54.20
2018-08-20T06:46:43.804Z,54.20
2018-08-20T06:47:48.724Z,54.20
2018-08-20T06:48:53.610Z,54.20
2018-08-20T06:49:58.427Z,54.20
2018-08-20T06:51:03.350Z,54.20
2018-08-20T06:52:08.267Z,54.20
2018-08-20T06:53:12.525Z,54.30
2018-08-20T06:54:16.690Z,54.30
2018-08-20T06:55:21.042Z,54.30
2018-08-20T06:56:25.282Z,54.30
2018-08-20T06:57:29.520Z,54.30
2018-08-20T06:58:33.918Z,54.30
2018-08-20T06:59:38.153Z,54.30
2018-08-20T07:00:42.517Z,54.30
2018-08-20T07:01:46.954Z,54.30
2018-08-20T07:02:51.370Z,54.30
2018-08-20T07:03:55.796Z,54.30
2018-08-20T07:05:00.003Z,54.30
2018-08-20T07:06:04.245Z,54.30
2018-08-20T07:07:08.494Z,54.30
2018-08-20T07:08:12.794Z,54.30
2018-08-20T07:09:17.167Z,54.30
2018-08-20T07:10:21.469Z,54.30
2018-08-20T07:11:25.675Z,54.30
2018-08-20T07:12:29.971Z,54.30
2018-08-20T07:13:34.247Z,54.30
2018-08-20T07:14:38.587Z,54.30
2018-08-20T07:15:42.835Z,54.30
2018-08-20T07:16:47.231Z,54.30
2018-08-20T07:17:51.599Z,54.30
2018-08-20T07:18:55.991Z,54.30
2018-08-20T07:20:00.157Z,54.40
2018-08-20T07:21:04.531Z,54.40
2018-08-20T07:22:08.873Z,54.40
2018-08-20T07:23:13.231Z,54.40
2018-08-20T07:24:17.648Z,54.40
2018-08-20T07:25:21.977Z,54.40
2018-08-20T07:26:26.323Z,54.40
2018-08-20T07:27:30.843Z,54.40
2018-08-20T07:28:35.192Z,54.40
2018-08-20T07:29:39.470Z,54.40
2018-08-20T07:30:43.904Z,54.40
2018-08-20T07:31:48.254Z,54.40
2018-08-20T07:32:52.564Z,54.40
2018-08-20T07:33:56.821Z,54.40
2018-08-20T07:35:01.261Z,54.40
2018-08-20T07:36:05.554Z,54.40
2018-08-20T07:37:10.024Z,54.40
2018-08-20T07:38:14.442Z,54.40
2018-08-20T07:39:18.814Z,54.40
2018-08-20T07:40:23.220Z,54.40
2018-08-20T07:41:27.678Z,54.40
2018-08-20T07:42:32.181Z,54.40
2018-08-20T07:43:36.381Z,54.40
2018-08-20T07:44:40.735Z,54.50
2018-08-20T07:45:45.135Z,54.50
2018-08-20T07:46:49.307Z,54.50
2018-08-20T07:47:53.614Z,54.50
2018-08-20T07:48:57.909Z,54.60
2018-08-20T07:50:02.145Z,54.60
2018-08-20T07:51:06.540Z,54.60
2018-08-20T07:52:11.102Z,54.60
2018-08-20T07:53:15.394Z,54.60
2018-08-20T07:54:19.662Z,54.60
2018-08-20T07:55:24.018Z,55.20
2018-08-20T07:56:28.216Z,54.60
2018-08-20T07:57:32.506Z,54.60
2018-08-20T07:58:36.869Z,54.60
2018-08-20T07:59:41.175Z,54.60
2018-08-20T08:00:45.608Z,54.60
2018-08-20T08:01:49.863Z,54.70
2018-08-20T08:02:54.094Z,54.60
2018-08-20T08:03:58.409Z,54.70
2018-08-20T08:05:02.792Z,54.70
2018-08-20T08:06:07.213Z,54.70
2018-08-20T08:07:11.516Z,54.70
2018-08-20T08:08:15.706Z,54.70
2018-08-20T08:09:20.061Z,54.70
2018-08-20T08:10:24.282Z,54.70
2018-08-20T08:11:28.492Z,54.80
2018-08-20T08:12:32.781Z,54.80
2018-08-20T08:13:37.213Z,55.40
2018-08-20T08:14:41.637Z,54.80
2018-08-20T08:15:46.023Z,54.80
2018-08-20T08:16:50.303Z,54.80
2018-08-20T08:17:54.624Z,55.50
2018-08-20T08:18:58.881Z,54.90
2018-08-20T08:20:03.126Z,54.90
2018-08-20T08:21:07.547Z,54.90
2018-08-20T08:22:11.848Z,54.90
2018-08-20T08:23:16.258Z,55.00
2018-08-20T08:24:20.685Z,55.60
2018-08-20T08:25:25.123Z,55.00
2018-08-20T08:26:29.560Z,55.10
2018-08-20T08:27:33.870Z,55.10
2018-08-20T08:28:38.201Z,55.10
2018-08-20T08:29:46.433Z,55.00
2018-08-20T08:30:50.669Z,55.10
2018-08-20T08:31:54.957Z,55.10
2018-08-20T08:32:59.328Z,55.10
2018-08-20T08:34:03.689Z,55.10
2018-08-20T08:35:07.934Z,55.10
2018-08-20T08:36:12.267Z,55.10
2018-08-20T08:37:16.495Z,55.10
2018-08-20T08:38:20.806Z,55.10
2018-08-20T08:39:25.242Z,55.10
2018-08-20T08:40:29.444Z,55.10
2018-08-20T08:41:33.842Z,55.10
2018-08-20T08:42:38.187Z,55.10
2018-08-20T08:43:42.430Z,55.20
2018-08-20T08:44:46.772Z,55.20
2018-08-20T08:45:51.000Z,55.20
2018-08-20T08:46:55.381Z,55.20
2018-08-20T08:47:59.778Z,55.20
2018-08-20T08:49:04.333Z,55.20
2018-08-20T08:50:08.753Z,55.10
2018-08-20T08:51:13.105Z,55.20
2018-08-20T08:52:17.345Z,55.20
2018-08-20T08:53:21.692Z,55.10
2018-08-20T08:54:25.944Z,55.10
2018-08-20T08:55:30.166Z,55.10
2018-08-20T08:56:34.420Z,55.10
2018-08-20T08:57:38.841Z,55.10
2018-08-20T08:58:42.995Z,55.10
2018-08-20T08:59:47.350Z,55.10
2018-08-20T09:00:51.733Z,55.10
2018-08-20T09:01:56.002Z,55.10
2018-08-20T09:03:00.330Z,55.20
2018-08-20T09:04:04.639Z,55.00
2018-08-20T09:05:09.001Z,55.20
2018-08-20T09:06:13.395Z,55.10
2018-08-20T09:07:17.767Z,55.10
2018-08-20T09:08:22.139Z,55.10
2018-08-20T09:09:26.381Z,55.10
2018-08-20T09:09:38.231Z,55.10
2018-08-20T09:10:42.438Z,55.20
2018-08-20T09:11:46.813Z,55.10
2018-08-20T09:12:51.015Z,55.10
2018-08-20T09:13:55.292Z,55.20
2018-08-20T09:14:59.640Z,55.20
2018-08-20T09:16:03.951Z,55.20
2018-08-20T09:17:08.254Z,55.20
2018-08-20T09:18:12.778Z,55.80
2018-08-20T09:19:17.124Z,55.20
2018-08-20T09:20:21.670Z,55.10
2018-08-20T09:21:26.175Z,55.80
2018-08-20T09:22:30.654Z,55.10
2018-08-20T09:23:35.171Z,55.20
2018-08-20T09:24:39.552Z,55.20
2018-08-20T09:25:44.118Z,55.20
2018-08-20T09:26:48.466Z,55.20
2018-08-20T09:27:52.969Z,55.20
2018-08-20T09:28:57.230Z,55.20
2018-08-20T09:30:01.681Z,55.10
2018-08-20T09:31:06.378Z,55.10
2018-08-20T09:32:10.955Z,55.20
2018-08-20T09:33:15.359Z,55.10
2018-08-20T09:34:19.962Z,55.10
2018-08-20T09:35:24.391Z,55.10
2018-08-20T09:36:28.742Z,55.10
2018-08-20T09:37:33.258Z,55.10
2018-08-20T09:38:37.870Z,55.10
2018-08-20T09:39:42.159Z,55.10
2018-08-20T09:40:50.881Z,55.10
2018-08-20T09:41:55.422Z,55.10
2018-08-20T09:42:59.877Z,55.10
2018-08-20T09:44:04.930Z,55.10
2018-08-20T09:45:09.482Z,55.10
2018-08-20T09:46:14.012Z,55.70
2018-08-20T09:47:18.451Z,55.10
2018-08-20T09:48:22.946Z,55.10
2018-08-20T09:49:27.287Z,55.30
2018-08-20T09:50:32.153Z,55.10
2018-08-20T09:51:36.554Z,55.10
2018-08-20T09:52:41.007Z,55.10
2018-08-20T09:53:47.301Z,55.00
2018-08-20T09:54:55.936Z,55.00
2018-08-20T09:56:00.629Z,55.00
2018-08-20T09:57:05.947Z,55.00
2018-08-20T09:58:10.385Z,55.00
2018-08-20T09:59:14.755Z,55.10
2018-08-20T10:00:19.101Z,55.00
2018-08-20T10:01:23.565Z,55.00
2018-08-20T10:02:28.019Z,55.00
2018-08-20T10:03:32.556Z,55.00
2018-08-20T10:04:36.890Z,55.00
2018-08-20T10:05:41.381Z,55.00
2018-08-20T10:06:45.748Z,55.00
2018-08-20T10:07:50.168Z,55.00
2018-08-20T10:08:54.843Z,55.00
2018-08-20T10:09:59.258Z,55.00
2018-08-20T10:11:03.682Z,55.10
2018-08-20T10:12:08.134Z,55.10
2018-08-20T10:13:12.569Z,55.10
2018-08-20T10:14:16.935Z,55.10
2018-08-20T10:15:21.337Z,55.20
2018-08-20T10:16:25.708Z,55.20
2018-08-20T10:17:30.003Z,55.20
2018-08-20T10:18:34.533Z,55.10
2018-08-20T10:19:38.880Z,55.20
2018-08-20T10:20:43.390Z,55.20
2018-08-20T10:21:47.701Z,55.20
2018-08-20T10:22:52.071Z,55.20
2018-08-20T10:23:56.547Z,55.10
2018-08-20T10:25:00.921Z,55.10
2018-08-20T10:26:05.412Z,55.10
2018-08-20T10:27:09.864Z,55.10
2018-08-20T10:28:14.300Z,55.10
2018-08-20T10:29:18.697Z,55.10
2018-08-20T10:30:23.121Z,55.10
2018-08-20T10:31:27.380Z,55.10
2018-08-20T10:32:31.824Z,55.10
2018-08-20T10:33:36.102Z,55.10
2018-08-20T10:34:40.511Z,55.10
2018-08-20T10:35:45.050Z,55.10
2018-08-20T10:36:49.464Z,55.20
2018-08-20T10:37:54.102Z,55.20
2018-08-20T10:38:58.368Z,55.20
2018-08-20T10:40:03.109Z,55.30
2018-08-20T10:41:07.440Z,55.30
2018-08-20T10:42:12.038Z,55.40
2018-08-20T10:43:16.345Z,56.10
2018-08-20T10:44:20.940Z,55.50
2018-08-20T10:45:25.648Z,55.50
2018-08-20T10:46:29.947Z,55.50
2018-08-20T10:47:34.252Z,55.50
2018-08-20T10:48:38.714Z,55.50
2018-08-20T10:49:43.273Z,56.20
2018-08-20T10:50:47.732Z,55.60
2018-08-20T10:51:52.252Z,55.60
2018-08-20T10:52:56.860Z,55.60
2018-08-20T10:54:01.349Z,55.60
2018-08-20T10:55:05.738Z,55.70
2018-08-20T10:56:10.217Z,55.60
2018-08-20T10:57:14.712Z,55.60
2018-08-20T10:58:19.051Z,55.70
2018-08-20T10:59:23.397Z,55.70
2018-08-20T11:00:27.687Z,55.60
2018-08-20T11:01:32.061Z,55.70
2018-08-20T11:02:36.664Z,55.60
2018-08-20T11:03:41.177Z,55.60
2018-08-20T11:04:45.558Z,55.50
2018-08-20T11:05:50.057Z,55.50
2018-08-20T11:06:54.366Z,55.50
2018-08-20T11:07:58.716Z,55.60
2018-08-20T11:09:03.055Z,55.50
2018-08-20T11:10:07.806Z,55.50
2018-08-20T11:11:12.888Z,55.50
2018-08-20T11:12:17.356Z,55.50
2018-08-20T11:13:21.740Z,55.50
2018-08-20T11:14:26.162Z,55.50
2018-08-20T11:15:30.445Z,55.50
2018-08-20T11:16:34.868Z,55.50
2018-08-20T11:17:39.188Z,55.60
2018-08-20T11:18:43.677Z,55.60
2018-08-20T11:19:48.011Z,55.70
2018-08-20T11:20:52.447Z,55.70
2018-08-20T11:21:56.703Z,55.70
2018-08-20T11:23:01.167Z,55.80
2018-08-20T11:24:05.464Z,55.80
2018-08-20T11:25:09.836Z,55.80
2018-08-20T11:26:14.099Z,55.90
2018-08-20T11:27:18.458Z,55.90
2018-08-20T11:28:22.999Z,55.90
2018-08-20T11:29:27.526Z,55.90
2018-08-20T11:30:31.969Z,56.00
2018-08-20T11:31:36.260Z,55.90
2018-08-20T11:32:40.582Z,56.00
2018-08-20T11:33:44.941Z,55.90
2018-08-20T11:34:49.249Z,56.00
2018-08-20T11:35:53.581Z,56.00
2018-08-20T11:36:58.025Z,56.00
2018-08-20T11:38:02.428Z,56.10
2018-08-20T11:39:06.736Z,56.10
2018-08-20T11:40:11.156Z,56.20
2018-08-20T11:41:15.657Z,56.20
2018-08-20T11:42:20.131Z,56.30
2018-08-20T11:43:24.483Z,56.30
2018-08-20T11:44:29.040Z,56.40
2018-08-20T11:45:33.320Z,56.40
2018-08-20T11:46:37.801Z,56.40
2018-08-20T11:47:42.253Z,56.40
2018-08-20T11:48:46.574Z,56.40
2018-08-20T11:49:51.180Z,56.40
2018-08-20T11:50:55.715Z,56.40
2018-08-20T11:52:00.095Z,56.40
2018-08-20T11:53:04.430Z,56.40
2018-08-20T11:54:08.789Z,56.40
2018-08-20T11:55:13.231Z,56.40
2018-08-20T11:56:17.731Z,56.40
2018-08-20T11:57:22.187Z,56.30
2018-08-20T11:58:26.555Z,56.40
2018-08-20T11:59:30.959Z,56.30
2018-08-20T12:00:35.311Z,56.30
2018-08-20T12:01:39.636Z,56.30
2018-08-20T12:02:43.994Z,56.20
2018-08-20T12:03:48.280Z,56.20
2018-08-20T12:04:52.657Z,56.20
2018-08-20T12:05:56.994Z,56.10
2018-08-20T12:07:01.482Z,56.10
2018-08-20T12:08:05.788Z,56.10
2018-08-20T12:09:10.261Z,56.00
2018-08-20T12:10:14.654Z,56.00
2018-08-20T12:11:19.122Z,56.00
2018-08-20T12:12:23.441Z,56.10
2018-08-20T12:13:27.750Z,56.10
2018-08-20T12:14:32.052Z,56.10
2018-08-20T12:15:36.495Z,56.10
2018-08-20T12:16:40.923Z,56.10
2018-08-20T12:17:45.240Z,56.10
2018-08-20T12:18:49.742Z,56.10
2018-08-20T12:19:54.697Z,56.10
2018-08-20T12:20:59.145Z,56.10
2018-08-20T12:22:03.649Z,56.10
2018-08-20T12:23:08.010Z,56.00
2018-08-20T12:24:12.338Z,56.00
2018-08-20T12:25:16.900Z,56.00
2018-08-20T12:26:21.218Z,55.90
2018-08-20T12:27:25.686Z,55.90
2018-08-20T12:28:30.057Z,55.90
2018-08-20T12:29:34.534Z,55.90
2018-08-20T12:30:38.972Z,55.90
2018-08-20T12:31:43.291Z,55.90
2018-08-20T12:32:47.560Z,56.40
2018-08-20T12:32:59.329Z,55.80
2018-08-20T12:34:04.598Z,55.80
2018-08-20T12:35:09.087Z,55.80
2018-08-20T12:36:13.536Z,55.80
2018-08-20T12:37:17.985Z,55.70
2018-08-20T12:38:22.335Z,55.70
2018-08-20T12:39:26.720Z,55.70
2018-08-20T12:40:31.167Z,55.70
2018-08-20T12:41:35.479Z,55.60
2018-08-20T12:42:39.894Z,55.60
2018-08-20T12:43:44.252Z,55.60
2018-08-20T12:44:48.708Z,55.60
2018-08-20T12:45:53.014Z,55.50
2018-08-20T12:46:05.915Z,55.50
2018-08-20T12:47:10.692Z,55.50
2018-08-20T12:48:14.974Z,55.50
2018-08-20T12:49:19.411Z,55.50
2018-08-20T12:50:23.697Z,55.50
2018-08-20T12:51:28.146Z,55.50
2018-08-20T12:52:32.630Z,55.40
2018-08-20T12:53:37.072Z,55.40
2018-08-20T12:54:41.475Z,55.40
2018-08-20T12:55:45.873Z,55.40
2018-08-20T12:56:50.264Z,55.40
2018-08-20T12:57:54.686Z,55.40
2018-08-20T12:58:58.984Z,55.40
2018-08-20T13:00:03.462Z,55.30
2018-08-20T13:01:07.824Z,55.30
2018-08-20T13:02:12.511Z,55.90
2018-08-20T13:03:16.801Z,55.20
2018-08-20T13:04:21.188Z,55.30
2018-08-20T13:05:25.597Z,55.30
2018-08-20T13:06:29.871Z,55.20
2018-08-20T13:07:34.315Z,55.30
2018-08-20T13:08:38.831Z,55.30
2018-08-20T13:09:43.144Z,55.20
2018-08-20T13:10:47.415Z,55.20
2018-08-20T13:11:51.797Z,55.10
2018-08-20T13:12:56.063Z,55.10
2018-08-20T13:14:00.403Z,55.20
2018-08-20T13:15:05.349Z,55.20
2018-08-20T13:16:09.949Z,55.10
2018-08-20T13:17:14.107Z,55.20
2018-08-20T13:18:18.435Z,55.10
2018-08-20T13:19:22.918Z,55.10
2018-08-20T13:20:27.367Z,55.10
2018-08-20T13:21:32.547Z,55.10
2018-08-20T13:22:36.968Z,55.10
2018-08-20T13:23:41.321Z,55.10
2018-08-20T13:24:45.860Z,55.00
2018-08-20T13:25:50.354Z,55.00
2018-08-20T13:26:54.733Z,55.00
2018-08-20T13:27:59.342Z,54.90
2018-08-20T13:29:03.665Z,54.90
2018-08-20T13:30:07.991Z,54.90
2018-08-20T13:31:12.325Z,54.90
2018-08-20T13:32:16.729Z,54.90
2018-08-20T13:33:21.217Z,54.80
2018-08-20T13:34:25.676Z,54.80
2018-08-20T13:35:29.967Z,54.80
2018-08-20T13:36:34.313Z,54.80
2018-08-20T13:37:38.579Z,54.80
2018-08-20T13:38:43.595Z,54.80
2018-08-20T13:39:48.127Z,54.80
2018-08-20T13:40:52.590Z,54.70
2018-08-20T13:41:57.006Z,54.70
2018-08-20T13:43:01.285Z,54.70
2018-08-20T13:44:06.095Z,54.70
2018-08-20T13:45:10.534Z,54.60
2018-08-20T13:46:14.906Z,54.60
2018-08-20T13:47:19.329Z,54.60
2018-08-20T13:48:23.834Z,54.50
2018-08-20T13:49:28.193Z,54.60